New Castle, Delaware
Current Conditions -  °F | °C
As of 6:51 AM on Friday 19 Dec 2014 (Local Time) from KILG Reporting Station
Overcast Overcast  
Wind Chill: 27°   Ceiling: 3700
Heat Index: 36°   Visibility: 10mi
Dew Point: 25°   Wind: 14mph
Humidity: 64%   Direction: 280°W
Pressure: 30.08"   Gusts: NA
Location:  39.67°N, 75.57°W
Report Text: KILG 191151Z 28012KT 10SM OVC037 02/M04 A3008 RMK AO2 SLP187 T00221039 10022 20017 53006
Loading
Personal Weather Stations






























Interactive Weather Map New forecast layout! Learn more

10-Day Weather Forecast

Advertisements
Track Severe Weather on mobile